sensor_id;sensor_type;location;lat;lon;timestamp;P1;durP1;ratioP1;P2;durP2;ratioP2
22673;SDS011;11504;43.334;21.918;2022-11-14T00:04:04;36.0;;;33.0;;
22673;SDS011;11504;43.334;21.918;2022-11-14T00:08:40;36.0;;;33.0;;
22673;SDS011;11504;43.334;21.918;2022-11-14T00:13:19;36.0;;;33.0;;
22673;SDS011;11504;43.334;21.918;2022-11-14T00:17:56;34.0;;;32.0;;
22673;SDS011;11504;43.334;21.918;2022-11-14T00:22:32;34.0;;;32.0;;
22673;SDS011;11504;43.334;21.918;2022-11-14T00:27:09;32.0;;;30.0;;
22673;SDS011;11504;43.334;21.918;2022-11-14T00:31:46;32.0;;;30.0;;
22673;SDS011;11504;43.334;21.918;2022-11-14T00:36:23;30.0;;;28.0;;
22673;SDS011;11504;43.334;21.918;2022-11-14T00:40:59;30.0;;;28.0;;
22673;SDS011;11504;43.334;21.918;2022-11-14T00:45:36;30.0;;;28.0;;
22673;SDS011;11504;43.334;21.918;2022-11-14T00:50:14;29.0;;;27.0;;
22673;SDS011;11504;43.334;21.918;2022-11-14T00:54:52;29.0;;;27.0;;
22673;SDS011;11504;43.334;21.918;2022-11-14T00:59:29;28.0;;;26.0;;
22673;SDS011;11504;43.334;21.918;2022-11-14T01:04:05;28.0;;;26.0;;
22673;SDS011;11504;43.334;21.918;2022-11-14T01:08:43;27.0;;;26.0;;
22673;SDS011;11504;43.334;21.918;2022-11-14T01:13:21;27.0;;;26.0;;
22673;SDS011;11504;43.334;21.918;2022-11-14T01:17:58;28.0;;;26.0;;
22673;SDS011;11504;43.334;21.918;2022-11-14T01:22:34;28.0;;;26.0;;
22673;SDS011;11504;43.334;21.918;2022-11-14T01:27:11;28.0;;;26.0;;
22673;SDS011;11504;43.334;21.918;2022-11-14T01:31:47;28.0;;;26.0;;
22673;SDS011;11504;43.334;21.918;2022-11-14T01:36:24;29.0;;;27.0;;
22673;SDS011;11504;43.334;21.918;2022-11-14T01:41:01;29.0;;;27.0;;
22673;SDS011;11504;43.334;21.918;2022-11-14T01:45:52;29.0;;;27.0;;
22673;SDS011;11504;43.334;21.918;2022-11-14T01:50:53;30.0;;;28.0;;
22673;SDS011;11504;43.334;21.918;2022-11-14T01:55:54;30.0;;;28.0;;
22673;SDS011;11504;43.334;21.918;2022-11-14T02:00:43;30.0;;;28.0;;
22673;SDS011;11504;43.334;21.918;2022-11-14T02:05:21;30.0;;;28.0;;
22673;SDS011;11504;43.334;21.918;2022-11-14T02:10:04;30.0;;;28.0;;
22673;SDS011;11504;43.334;21.918;2022-11-14T02:14:57;30.0;;;28.0;;
22673;SDS011;11504;43.334;21.918;2022-11-14T02:19:43;31.0;;;29.0;;
22673;SDS011;11504;43.334;21.918;2022-11-14T02:24:39;31.0;;;29.0;;
22673;SDS011;11504;43.334;21.918;2022-11-14T02:29:20;32.0;;;30.0;;
22673;SDS011;11504;43.334;21.918;2022-11-14T02:33:57;32.0;;;30.0;;
22673;SDS011;11504;43.334;21.918;2022-11-14T02:38:34;31.0;;;30.0;;
22673;SDS011;11504;43.334;21.918;2022-11-14T02:43:11;31.0;;;30.0;;
22673;SDS011;11504;43.334;21.918;2022-11-14T02:47:48;30.0;;;29.0;;
22673;SDS011;11504;43.334;21.918;2022-11-14T02:52:24;30.0;;;29.0;;
22673;SDS011;11504;43.334;21.918;2022-11-14T02:57:01;30.0;;;28.0;;
22673;SDS011;11504;43.334;21.918;2022-11-14T03:01:38;30.0;;;28.0;;
22673;SDS011;11504;43.334;21.918;2022-11-14T03:06:14;29.0;;;27.0;;
22673;SDS011;11504;43.334;21.918;2022-11-14T03:10:51;29.0;;;27.0;;
22673;SDS011;11504;43.334;21.918;2022-11-14T03:15:27;29.0;;;27.0;;
22673;SDS011;11504;43.334;21.918;2022-11-14T03:20:05;32.0;;;30.0;;
22673;SDS011;11504;43.334;21.918;2022-11-14T03:24:45;32.0;;;30.0;;
22673;SDS011;11504;43.334;21.918;2022-11-14T03:29:22;36.0;;;34.0;;
22673;SDS011;11504;43.334;21.918;2022-11-14T03:33:59;36.0;;;34.0;;
22673;SDS011;11504;43.334;21.918;2022-11-14T03:38:36;34.0;;;32.0;;
22673;SDS011;11504;43.334;21.918;2022-11-14T03:43:13;34.0;;;32.0;;
22673;SDS011;11504;43.334;21.918;2022-11-14T03:47:53;31.0;;;29.0;;
22673;SDS011;11504;43.334;21.918;2022-11-14T03:52:30;31.0;;;29.0;;
22673;SDS011;11504;43.334;21.918;2022-11-14T03:57:06;30.0;;;27.0;;
22673;SDS011;11504;43.334;21.918;2022-11-14T04:01:43;30.0;;;27.0;;
22673;SDS011;11504;43.334;21.918;2022-11-14T04:06:20;28.0;;;25.0;;
22673;SDS011;11504;43.334;21.918;2022-11-14T04:10:57;28.0;;;25.0;;
22673;SDS011;11504;43.334;21.918;2022-11-14T04:15:34;28.0;;;25.0;;
22673;SDS011;11504;43.334;21.918;2022-11-14T04:20:12;29.0;;;26.0;;
22673;SDS011;11504;43.334;21.918;2022-11-14T04:24:51;29.0;;;26.0;;
22673;SDS011;11504;43.334;21.918;2022-11-14T04:29:27;30.0;;;28.0;;
22673;SDS011;11504;43.334;21.918;2022-11-14T04:34:04;30.0;;;28.0;;
22673;SDS011;11504;43.334;21.918;2022-11-14T04:38:40;28.0;;;27.0;;
22673;SDS011;11504;43.334;21.918;2022-11-14T04:43:19;28.0;;;27.0;;
22673;SDS011;11504;43.334;21.918;2022-11-14T04:47:56;27.0;;;26.0;;
22673;SDS011;11504;43.334;21.918;2022-11-14T04:52:33;27.0;;;26.0;;
22673;SDS011;11504;43.334;21.918;2022-11-14T04:57:10;26.0;;;26.0;;
22673;SDS011;11504;43.334;21.918;2022-11-14T05:01:47;26.0;;;26.0;;
22673;SDS011;11504;43.334;21.918;2022-11-14T05:06:24;26.0;;;25.0;;
22673;SDS011;11504;43.334;21.918;2022-11-14T05:11:00;26.0;;;25.0;;
22673;SDS011;11504;43.334;21.918;2022-11-14T05:15:38;26.0;;;25.0;;
22673;SDS011;11504;43.334;21.918;2022-11-14T05:20:15;28.0;;;27.0;;
22673;SDS011;11504;43.334;21.918;2022-11-14T05:24:52;28.0;;;27.0;;
22673;SDS011;11504;43.334;21.918;2022-11-14T05:29:28;30.0;;;29.0;;
22673;SDS011;11504;43.334;21.918;2022-11-14T05:34:05;30.0;;;29.0;;
22673;SDS011;11504;43.334;21.918;2022-11-14T05:38:42;30.0;;;28.0;;
22673;SDS011;11504;43.334;21.918;2022-11-14T05:43:19;30.0;;;28.0;;
22673;SDS011;11504;43.334;21.918;2022-11-14T05:47:56;30.0;;;28.0;;
22673;SDS011;11504;43.334;21.918;2022-11-14T05:52:32;30.0;;;28.0;;
22673;SDS011;11504;43.334;21.918;2022-11-14T05:57:09;40.0;;;36.0;;
22673;SDS011;11504;43.334;21.918;2022-11-14T06:01:45;40.0;;;36.0;;
22673;SDS011;11504;43.334;21.918;2022-11-14T06:06:22;51.0;;;44.0;;
22673;SDS011;11504;43.334;21.918;2022-11-14T06:11:02;51.0;;;44.0;;
22673;SDS011;11504;43.334;21.918;2022-11-14T06:15:48;51.0;;;44.0;;
22673;SDS011;11504;43.334;21.918;2022-11-14T06:20:25;49.0;;;44.0;;
22673;SDS011;11504;43.334;21.918;2022-11-14T06:25:03;49.0;;;44.0;;
22673;SDS011;11504;43.334;21.918;2022-11-14T06:29:43;47.0;;;43.0;;
22673;SDS011;11504;43.334;21.918;2022-11-14T06:34:20;47.0;;;43.0;;
22673;SDS011;11504;43.334;21.918;2022-11-14T06:38:56;47.0;;;44.0;;
22673;SDS011;11504;43.334;21.918;2022-11-14T06:43:33;47.0;;;44.0;;
22673;SDS011;11504;43.334;21.918;2022-11-14T06:48:14;47.0;;;45.0;;
22673;SDS011;11504;43.334;21.918;2022-11-14T06:52:50;47.0;;;45.0;;
22673;SDS011;11504;43.334;21.918;2022-11-14T06:57:27;50.0;;;48.0;;
22673;SDS011;11504;43.334;21.918;2022-11-14T07:02:03;50.0;;;48.0;;
22673;SDS011;11504;43.334;21.918;2022-11-14T07:06:40;54.0;;;51.0;;
22673;SDS011;11504;43.334;21.918;2022-11-14T07:11:19;54.0;;;51.0;;
22673;SDS011;11504;43.334;21.918;2022-11-14T07:16:01;54.0;;;51.0;;
22673;SDS011;11504;43.334;21.918;2022-11-14T07:20:40;46.0;;;44.0;;
22673;SDS011;11504;43.334;21.918;2022-11-14T07:25:17;46.0;;;44.0;;
22673;SDS011;11504;43.334;21.918;2022-11-14T07:29:54;38.0;;;36.0;;
22673;SDS011;11504;43.334;21.918;2022-11-14T07:34:30;38.0;;;36.0;;
22673;SDS011;11504;43.334;21.918;2022-11-14T07:39:07;38.0;;;36.0;;
22673;SDS011;11504;43.334;21.918;2022-11-14T07:43:45;38.0;;;36.0;;
22673;SDS011;11504;43.334;21.918;2022-11-14T07:48:21;37.0;;;35.0;;
22673;SDS011;11504;43.334;21.918;2022-11-14T07:52:58;37.0;;;35.0;;
22673;SDS011;11504;43.334;21.918;2022-11-14T07:57:35;34.0;;;32.0;;
22673;SDS011;11504;43.334;21.918;2022-11-14T08:02:13;34.0;;;32.0;;
22673;SDS011;11504;43.334;21.918;2022-11-14T08:06:50;32.0;;;29.0;;
22673;SDS011;11504;43.334;21.918;2022-11-14T08:11:27;32.0;;;29.0;;
22673;SDS011;11504;43.334;21.918;2022-11-14T08:16:06;32.0;;;29.0;;
22673;SDS011;11504;43.334;21.918;2022-11-14T08:20:46;27.0;;;25.0;;
22673;SDS011;11504;43.334;21.918;2022-11-14T08:25:23;27.0;;;25.0;;
22673;SDS011;11504;43.334;21.918;2022-11-14T08:30:00;22.0;;;21.0;;
22673;SDS011;11504;43.334;21.918;2022-11-14T08:34:37;22.0;;;21.0;;
22673;SDS011;11504;43.334;21.918;2022-11-14T08:39:13;22.0;;;21.0;;
22673;SDS011;11504;43.334;21.918;2022-11-14T08:43:50;22.0;;;21.0;;
22673;SDS011;11504;43.334;21.918;2022-11-14T08:48:27;22.0;;;21.0;;
22673;SDS011;11504;43.334;21.918;2022-11-14T08:53:07;22.0;;;21.0;;
22673;SDS011;11504;43.334;21.918;2022-11-14T08:57:44;22.0;;;20.0;;
22673;SDS011;11504;43.334;21.918;2022-11-14T09:02:22;22.0;;;20.0;;
22673;SDS011;11504;43.334;21.918;2022-11-14T09:06:59;21.0;;;20.0;;
22673;SDS011;11504;43.334;21.918;2022-11-14T09:11:35;21.0;;;20.0;;
22673;SDS011;11504;43.334;21.918;2022-11-14T09:16:12;21.0;;;20.0;;
22673;SDS011;11504;43.334;21.918;2022-11-14T09:20:49;22.0;;;20.0;;
22673;SDS011;11504;43.334;21.918;2022-11-14T09:25:25;22.0;;;20.0;;
22673;SDS011;11504;43.334;21.918;2022-11-14T09:30:04;22.0;;;20.0;;
22673;SDS011;11504;43.334;21.918;2022-11-14T09:34:44;22.0;;;20.0;;
22673;SDS011;11504;43.334;21.918;2022-11-14T09:39:21;22.0;;;21.0;;
22673;SDS011;11504;43.334;21.918;2022-11-14T09:44:20;22.0;;;21.0;;
22673;SDS011;11504;43.334;21.918;2022-11-14T09:49:37;23.0;;;22.0;;
22673;SDS011;11504;43.334;21.918;2022-11-14T09:54:23;23.0;;;22.0;;
22673;SDS011;11504;43.334;21.918;2022-11-14T09:59:21;22.0;;;22.0;;
22673;SDS011;11504;43.334;21.918;2022-11-14T10:04:09;22.0;;;22.0;;
22673;SDS011;11504;43.334;21.918;2022-11-14T10:09:50;22.0;;;21.0;;
22673;SDS011;11504;43.334;21.918;2022-11-14T10:15:34;22.0;;;21.0;;
22673;SDS011;11504;43.334;21.918;2022-11-14T10:20:52;22.0;;;21.0;;
22673;SDS011;11504;43.334;21.918;2022-11-14T10:26:19;22.0;;;21.0;;
22673;SDS011;11504;43.334;21.918;2022-11-14T10:31:23;22.0;;;21.0;;
22673;SDS011;11504;43.334;21.918;2022-11-14T10:36:53;20.0;;;19.0;;
22673;SDS011;11504;43.334;21.918;2022-11-14T10:42:02;20.0;;;19.0;;
22673;SDS011;11504;43.334;21.918;2022-11-14T10:47:04;18.0;;;17.0;;
22673;SDS011;11504;43.334;21.918;2022-11-14T10:52:00;18.0;;;17.0;;
22673;SDS011;11504;43.334;21.918;2022-11-14T10:56:54;20.0;;;19.0;;
22673;SDS011;11504;43.334;21.918;2022-11-14T11:01:34;20.0;;;19.0;;
22673;SDS011;11504;43.334;21.918;2022-11-14T11:06:28;20.0;;;19.0;;
22673;SDS011;11504;43.334;21.918;2022-11-14T11:11:11;22.0;;;21.0;;
22673;SDS011;11504;43.334;21.918;2022-11-14T11:15:58;22.0;;;21.0;;
22673;SDS011;11504;43.334;21.918;2022-11-14T11:20:41;21.0;;;20.0;;
22673;SDS011;11504;43.334;21.918;2022-11-14T11:25:24;21.0;;;20.0;;
22673;SDS011;11504;43.334;21.918;2022-11-14T11:30:19;20.0;;;19.0;;
22673;SDS011;11504;43.334;21.918;2022-11-14T11:35:01;20.0;;;19.0;;
22673;SDS011;11504;43.334;21.918;2022-11-14T11:39:57;20.0;;;19.0;;
22673;SDS011;11504;43.334;21.918;2022-11-14T11:45:01;20.0;;;19.0;;
22673;SDS011;11504;43.334;21.918;2022-11-14T11:49:53;20.0;;;19.0;;
22673;SDS011;11504;43.334;21.918;2022-11-14T11:54:49;20.0;;;19.0;;
22673;SDS011;11504;43.334;21.918;2022-11-14T12:00:00;21.0;;;20.0;;
22673;SDS011;11504;43.334;21.918;2022-11-14T12:04:56;21.0;;;20.0;;
22673;SDS011;11504;43.334;21.918;2022-11-14T12:09:38;22.0;;;21.0;;
22673;SDS011;11504;43.334;21.918;2022-11-14T12:14:49;22.0;;;21.0;;
22673;SDS011;11504;43.334;21.918;2022-11-14T12:20:27;22.0;;;21.0;;
22673;SDS011;11504;43.334;21.918;2022-11-14T12:26:12;22.0;;;21.0;;
22673;SDS011;11504;43.334;21.918;2022-11-14T12:31:41;22.0;;;21.0;;
22673;SDS011;11504;43.334;21.918;2022-11-14T12:36:28;22.0;;;21.0;;
22673;SDS011;11504;43.334;21.918;2022-11-14T12:41:11;24.0;;;22.0;;
22673;SDS011;11504;43.334;21.918;2022-11-14T12:46:05;24.0;;;22.0;;
22673;SDS011;11504;43.334;21.918;2022-11-14T12:50:48;25.0;;;23.0;;
22673;SDS011;11504;43.334;21.918;2022-11-14T12:56:43;25.0;;;23.0;;
22673;SDS011;11504;43.334;21.918;2022-11-14T13:02:35;26.0;;;24.0;;
22673;SDS011;11504;43.334;21.918;2022-11-14T13:08:57;27.0;;;25.0;;
22673;SDS011;11504;43.334;21.918;2022-11-14T13:14:08;27.0;;;25.0;;
22673;SDS011;11504;43.334;21.918;2022-11-14T13:18:52;28.0;;;26.0;;
22673;SDS011;11504;43.334;21.918;2022-11-14T13:23:55;28.0;;;26.0;;
22673;SDS011;11504;43.334;21.918;2022-11-14T13:28:50;28.0;;;27.0;;
22673;SDS011;11504;43.334;21.918;2022-11-14T13:33:46;28.0;;;27.0;;
22673;SDS011;11504;43.334;21.918;2022-11-14T13:39:03;27.0;;;26.0;;
22673;SDS011;11504;43.334;21.918;2022-11-14T13:44:51;27.0;;;26.0;;
22673;SDS011;11504;43.334;21.918;2022-11-14T13:50:27;26.0;;;25.0;;
22673;SDS011;11504;43.334;21.918;2022-11-14T13:55:21;26.0;;;25.0;;
22673;SDS011;11504;43.334;21.918;2022-11-14T14:00:44;26.0;;;24.0;;
22673;SDS011;11504;43.334;21.918;2022-11-14T14:06:41;26.0;;;24.0;;
22673;SDS011;11504;43.334;21.918;2022-11-14T14:12:17;26.0;;;24.0;;
22673;SDS011;11504;43.334;21.918;2022-11-14T14:18:07;25.0;;;24.0;;
22673;SDS011;11504;43.334;21.918;2022-11-14T14:23:42;25.0;;;24.0;;
22673;SDS011;11504;43.334;21.918;2022-11-14T14:29:03;24.0;;;23.0;;
22673;SDS011;11504;43.334;21.918;2022-11-14T14:34:21;24.0;;;23.0;;
22673;SDS011;11504;43.334;21.918;2022-11-14T14:39:16;25.0;;;24.0;;
22673;SDS011;11504;43.334;21.918;2022-11-14T14:44:00;25.0;;;24.0;;
22673;SDS011;11504;43.334;21.918;2022-11-14T14:48:41;26.0;;;24.0;;
22673;SDS011;11504;43.334;21.918;2022-11-14T14:53:23;26.0;;;24.0;;
22673;SDS011;11504;43.334;21.918;2022-11-14T14:58:23;26.0;;;24.0;;
22673;SDS011;11504;43.334;21.918;2022-11-14T15:03:09;26.0;;;24.0;;
22673;SDS011;11504;43.334;21.918;2022-11-14T15:07:47;26.0;;;25.0;;
22673;SDS011;11504;43.334;21.918;2022-11-14T15:12:29;26.0;;;25.0;;
22673;SDS011;11504;43.334;21.918;2022-11-14T15:17:09;31.0;;;30.0;;
22673;SDS011;11504;43.334;21.918;2022-11-14T15:22:21;31.0;;;30.0;;
22673;SDS011;11504;43.334;21.918;2022-11-14T15:27:04;36.0;;;34.0;;
22673;SDS011;11504;43.334;21.918;2022-11-14T15:31:56;36.0;;;34.0;;
22673;SDS011;11504;43.334;21.918;2022-11-14T15:37:14;38.0;;;36.0;;
22673;SDS011;11504;43.334;21.918;2022-11-14T15:42:11;38.0;;;36.0;;
22673;SDS011;11504;43.334;21.918;2022-11-14T15:46:55;40.0;;;38.0;;
22673;SDS011;11504;43.334;21.918;2022-11-14T15:51:39;40.0;;;38.0;;
22673;SDS011;11504;43.334;21.918;2022-11-14T15:56:24;40.0;;;38.0;;
22673;SDS011;11504;43.334;21.918;2022-11-14T16:01:00;40.0;;;38.0;;
22673;SDS011;11504;43.334;21.918;2022-11-14T16:05:37;40.0;;;38.0;;
22673;SDS011;11504;43.334;21.918;2022-11-14T16:10:17;40.0;;;38.0;;
22673;SDS011;11504;43.334;21.918;2022-11-14T16:14:59;40.0;;;38.0;;
22673;SDS011;11504;43.334;21.918;2022-11-14T16:19:36;39.0;;;37.0;;
22673;SDS011;11504;43.334;21.918;2022-11-14T16:24:17;39.0;;;37.0;;
22673;SDS011;11504;43.334;21.918;2022-11-14T16:28:57;38.0;;;36.0;;
22673;SDS011;11504;43.334;21.918;2022-11-14T16:33:34;38.0;;;36.0;;
22673;SDS011;11504;43.334;21.918;2022-11-14T16:38:12;42.0;;;40.0;;
22673;SDS011;11504;43.334;21.918;2022-11-14T16:42:49;42.0;;;40.0;;
22673;SDS011;11504;43.334;21.918;2022-11-14T16:47:31;46.0;;;44.0;;
22673;SDS011;11504;43.334;21.918;2022-11-14T16:52:09;46.0;;;44.0;;
22673;SDS011;11504;43.334;21.918;2022-11-14T16:56:47;46.0;;;44.0;;
22673;SDS011;11504;43.334;21.918;2022-11-14T17:01:23;40.0;;;38.0;;
22673;SDS011;11504;43.334;21.918;2022-11-14T17:06:00;40.0;;;38.0;;
22673;SDS011;11504;43.334;21.918;2022-11-14T17:10:45;33.0;;;31.0;;
22673;SDS011;11504;43.334;21.918;2022-11-14T17:15:22;33.0;;;31.0;;
22673;SDS011;11504;43.334;21.918;2022-11-14T17:19:59;34.0;;;32.0;;
22673;SDS011;11504;43.334;21.918;2022-11-14T17:24:35;34.0;;;32.0;;
22673;SDS011;11504;43.334;21.918;2022-11-14T17:29:12;36.0;;;34.0;;
22673;SDS011;11504;43.334;21.918;2022-11-14T17:33:50;36.0;;;34.0;;
22673;SDS011;11504;43.334;21.918;2022-11-14T17:38:35;38.0;;;36.0;;
22673;SDS011;11504;43.334;21.918;2022-11-14T17:43:15;38.0;;;36.0;;
22673;SDS011;11504;43.334;21.918;2022-11-14T17:47:52;40.0;;;38.0;;
22673;SDS011;11504;43.334;21.918;2022-11-14T17:52:28;40.0;;;38.0;;
22673;SDS011;11504;43.334;21.918;2022-11-14T17:57:05;38.0;;;36.0;;
22673;SDS011;11504;43.334;21.918;2022-11-14T18:01:42;38.0;;;36.0;;
22673;SDS011;11504;43.334;21.918;2022-11-14T18:06:19;38.0;;;36.0;;
22673;SDS011;11504;43.334;21.918;2022-11-14T18:10:58;37.0;;;35.0;;
22673;SDS011;11504;43.334;21.918;2022-11-14T18:15:37;37.0;;;35.0;;
22673;SDS011;11504;43.334;21.918;2022-11-14T18:20:15;35.0;;;33.0;;
22673;SDS011;11504;43.334;21.918;2022-11-14T18:24:52;35.0;;;33.0;;
22673;SDS011;11504;43.334;21.918;2022-11-14T18:29:30;33.0;;;31.0;;
22673;SDS011;11504;43.334;21.918;2022-11-14T18:34:07;33.0;;;31.0;;
22673;SDS011;11504;43.334;21.918;2022-11-14T18:38:44;34.0;;;32.0;;
22673;SDS011;11504;43.334;21.918;2022-11-14T18:43:22;34.0;;;32.0;;
22673;SDS011;11504;43.334;21.918;2022-11-14T18:47:59;36.0;;;34.0;;
22673;SDS011;11504;43.334;21.918;2022-11-14T18:52:35;36.0;;;34.0;;
22673;SDS011;11504;43.334;21.918;2022-11-14T18:57:12;40.0;;;38.0;;
22673;SDS011;11504;43.334;21.918;2022-11-14T19:01:48;40.0;;;38.0;;
22673;SDS011;11504;43.334;21.918;2022-11-14T19:06:26;40.0;;;38.0;;
22673;SDS011;11504;43.334;21.918;2022-11-14T19:11:11;44.0;;;41.0;;
22673;SDS011;11504;43.334;21.918;2022-11-14T19:15:53;44.0;;;41.0;;
22673;SDS011;11504;43.334;21.918;2022-11-14T19:20:36;39.0;;;37.0;;
22673;SDS011;11504;43.334;21.918;2022-11-14T19:25:12;39.0;;;37.0;;
22673;SDS011;11504;43.334;21.918;2022-11-14T19:29:49;34.0;;;33.0;;
22673;SDS011;11504;43.334;21.918;2022-11-14T19:34:26;34.0;;;33.0;;
22673;SDS011;11504;43.334;21.918;2022-11-14T19:39:03;38.0;;;37.0;;
22673;SDS011;11504;43.334;21.918;2022-11-14T19:43:42;38.0;;;37.0;;
22673;SDS011;11504;43.334;21.918;2022-11-14T19:48:19;43.0;;;41.0;;
22673;SDS011;11504;43.334;21.918;2022-11-14T19:52:55;43.0;;;41.0;;
22673;SDS011;11504;43.334;21.918;2022-11-14T19:57:32;36.0;;;35.0;;
22673;SDS011;11504;43.334;21.918;2022-11-14T20:02:11;36.0;;;35.0;;
22673;SDS011;11504;43.334;21.918;2022-11-14T20:06:49;36.0;;;35.0;;
22673;SDS011;11504;43.334;21.918;2022-11-14T20:11:28;30.0;;;29.0;;
22673;SDS011;11504;43.334;21.918;2022-11-14T20:16:08;30.0;;;29.0;;
22673;SDS011;11504;43.334;21.918;2022-11-14T20:20:49;34.0;;;33.0;;
22673;SDS011;11504;43.334;21.918;2022-11-14T20:25:25;34.0;;;33.0;;
22673;SDS011;11504;43.334;21.918;2022-11-14T20:30:02;39.0;;;37.0;;
22673;SDS011;11504;43.334;21.918;2022-11-14T20:34:41;39.0;;;37.0;;
22673;SDS011;11504;43.334;21.918;2022-11-14T20:39:17;48.0;;;45.0;;
22673;SDS011;11504;43.334;21.918;2022-11-14T20:43:53;48.0;;;45.0;;
22673;SDS011;11504;43.334;21.918;2022-11-14T20:48:30;56.0;;;53.0;;
22673;SDS011;11504;43.334;21.918;2022-11-14T20:53:09;56.0;;;53.0;;
22673;SDS011;11504;43.334;21.918;2022-11-14T20:57:45;50.0;;;48.0;;
22673;SDS011;11504;43.334;21.918;2022-11-14T21:02:22;50.0;;;48.0;;
22673;SDS011;11504;43.334;21.918;2022-11-14T21:06:59;50.0;;;48.0;;
22673;SDS011;11504;43.334;21.918;2022-11-14T21:11:35;44.0;;;42.0;;
22673;SDS011;11504;43.334;21.918;2022-11-14T21:16:13;44.0;;;42.0;;
22673;SDS011;11504;43.334;21.918;2022-11-14T21:20:58;35.0;;;34.0;;
22673;SDS011;11504;43.334;21.918;2022-11-14T21:25:44;35.0;;;34.0;;
22673;SDS011;11504;43.334;21.918;2022-11-14T21:30:20;26.0;;;25.0;;
22673;SDS011;11504;43.334;21.918;2022-11-14T21:34:57;26.0;;;25.0;;
22673;SDS011;11504;43.334;21.918;2022-11-14T21:39:33;30.0;;;30.0;;
22673;SDS011;11504;43.334;21.918;2022-11-14T21:44:10;30.0;;;30.0;;
22673;SDS011;11504;43.334;21.918;2022-11-14T21:48:53;35.0;;;34.0;;
22673;SDS011;11504;43.334;21.918;2022-11-14T21:53:32;35.0;;;34.0;;
22673;SDS011;11504;43.334;21.918;2022-11-14T21:58:10;34.0;;;32.0;;
22673;SDS011;11504;43.334;21.918;2022-11-14T22:02:47;34.0;;;32.0;;
22673;SDS011;11504;43.334;21.918;2022-11-14T22:07:24;32.0;;;30.0;;
22673;SDS011;11504;43.334;21.918;2022-11-14T22:12:01;32.0;;;30.0;;
22673;SDS011;11504;43.334;21.918;2022-11-14T22:16:38;32.0;;;30.0;;
22673;SDS011;11504;43.334;21.918;2022-11-14T22:21:15;51.0;;;48.0;;
22673;SDS011;11504;43.334;21.918;2022-11-14T22:25:53;51.0;;;48.0;;
22673;SDS011;11504;43.334;21.918;2022-11-14T22:30:35;70.0;;;67.0;;
22673;SDS011;11504;43.334;21.918;2022-11-14T22:35:12;70.0;;;67.0;;
22673;SDS011;11504;43.334;21.918;2022-11-14T22:39:49;52.0;;;50.0;;
22673;SDS011;11504;43.334;21.918;2022-11-14T22:44:25;52.0;;;50.0;;
22673;SDS011;11504;43.334;21.918;2022-11-14T22:49:02;35.0;;;34.0;;
22673;SDS011;11504;43.334;21.918;2022-11-14T22:53:39;35.0;;;34.0;;
22673;SDS011;11504;43.334;21.918;2022-11-14T22:58:24;36.0;;;35.0;;
22673;SDS011;11504;43.334;21.918;2022-11-14T23:03:09;36.0;;;35.0;;
22673;SDS011;11504;43.334;21.918;2022-11-14T23:07:46;38.0;;;36.0;;
22673;SDS011;11504;43.334;21.918;2022-11-14T23:12:22;38.0;;;36.0;;
22673;SDS011;11504;43.334;21.918;2022-11-14T23:16:59;38.0;;;36.0;;
22673;SDS011;11504;43.334;21.918;2022-11-14T23:21:35;33.0;;;32.0;;
22673;SDS011;11504;43.334;21.918;2022-11-14T23:26:13;33.0;;;32.0;;
22673;SDS011;11504;43.334;21.918;2022-11-14T23:30:54;28.0;;;27.0;;
22673;SDS011;11504;43.334;21.918;2022-11-14T23:35:34;28.0;;;27.0;;
22673;SDS011;11504;43.334;21.918;2022-11-14T23:40:11;28.0;;;27.0;;
22673;SDS011;11504;43.334;21.918;2022-11-14T23:44:48;28.0;;;27.0;;
22673;SDS011;11504;43.334;21.918;2022-11-14T23:49:24;29.0;;;27.0;;
22673;SDS011;11504;43.334;21.918;2022-11-14T23:54:01;29.0;;;27.0;;
22673;SDS011;11504;43.334;21.918;2022-11-14T23:58:38;25.0;;;24.0;;
